Time;durP1;ratioP1;P1;durP2;ratioP2;P2;SDS_P1;SDS_P2;PMS_P1;PMS_P2;Temp;Humidity;BMP_temperature;BMP_pressure;BME280_temperature;BME280_humidity;BME280_pressure;Samples;Min_cycle;Max_cycle;Signal;HPM_P1;HPM_P2
2021/09/30 00:00:10;;;;;;;10.20;9.00;;;17.00;99.90;;;;;;6279809;28;20442;-64
2021/09/30 00:03:14;;;;;;;10.10;8.77;;;17.00;99.90;;;;;;6279642;28;20472;-64
2021/09/30 00:06:17;;;;;;;9.70;8.70;;;17.00;99.90;;;;;;6279481;28;20476;-64
2021/09/30 00:09:20;;;;;;;11.33;9.10;;;17.00;99.90;;;;;;6279133;28;20472;-64
2021/09/30 00:12:28;;;;;;;9.60;8.70;;;17.00;99.90;;;;;;6279051;28;20960;-65
2021/09/30 00:15:45;;;;;;;9.97;8.83;;;17.00;99.90;;;;;;6279484;28;20480;-65
2021/09/30 00:32:43;;;;;;;10.93;9.03;;;16.90;99.90;;;;;;6279082;28;20791;-63
2021/09/30 00:35:56;;;;;;;9.70;8.67;;;16.80;99.90;;;;;;6278532;28;20476;-63
2021/09/30 00:42:37;;;;;;;10.57;7.87;;;16.80;99.90;;;;;;6278574;28;20477;-63
2021/09/30 00:45:44;;;;;;;7.63;7.03;;;16.80;99.90;;;;;;6278347;28;20540;-63
2021/09/30 00:49:00;;;;;;;10.33;9.30;;;16.80;99.90;;;;;;6278332;28;20512;-64
2021/09/30 00:52:06;;;;;;;11.60;8.57;;;16.80;99.90;;;;;;6278333;28;20493;-64
2021/09/30 01:46:51;;;;;;;7.23;6.53;;;16.50;99.90;;;;;;6277206;28;21043;-64
2021/09/30 02:20:32;;;;;;;4.00;3.20;;;16.50;99.90;;;;;;6277011;28;21025;-64
2021/09/30 02:24:01;;;;;;;4.43;3.90;;;16.40;99.90;;;;;;6276755;28;20490;-64
2021/09/30 03:01:11;;;;;;;3.40;2.50;;;16.00;99.90;;;;;;6251349;28;20996;-64
2021/09/30 03:04:15;;;;;;;2.87;2.67;;;16.00;99.90;;;;;;6275568;28;20474;-64
2021/09/30 03:07:20;;;;;;;4.53;2.60;;;16.00;99.90;;;;;;6270476;28;21033;-64
2021/09/30 03:10:26;;;;;;;4.13;2.37;;;16.00;99.90;;;;;;6275121;28;20478;-64
2021/09/30 03:13:31;;;;;;;1.73;1.63;;;15.90;99.90;;;;;;6276053;28;20480;-64
2021/09/30 03:16:40;;;;;;;2.00;1.80;;;15.80;99.90;;;;;;6276236;28;20462;-64
2021/09/30 03:19:56;;;;;;;3.47;1.97;;;15.80;99.90;;;;;;6276448;28;20470;-64
2021/09/30 03:23:04;;;;;;;4.17;1.67;;;15.80;99.90;;;;;;6275496;28;20551;-64
2021/09/30 03:26:07;;;;;;;1.90;1.60;;;15.60;99.90;;;;;;6274885;28;20862;-64
2021/09/30 03:29:12;;;;;;;2.37;1.47;;;15.60;99.90;;;;;;6274899;28;20489;-63
2021/09/30 03:32:18;;;;;;;1.87;1.70;;;15.60;99.90;;;;;;6275284;28;20478;-63
2021/09/30 03:35:22;;;;;;;2.70;1.83;;;15.60;99.90;;;;;;6275091;28;20474;-63
2021/09/30 03:38:26;;;;;;;2.13;1.93;;;15.60;99.90;;;;;;6275659;28;20466;-63
2021/09/30 03:41:29;;;;;;;1.60;1.50;;;15.60;99.90;;;;;;6274813;28;20478;-63
2021/09/30 03:44:32;;;;;;;3.57;1.50;;;15.60;99.90;;;;;;6275258;28;20470;-63
2021/09/30 03:47:36;;;;;;;1.70;1.20;;;15.70;99.90;;;;;;6274620;28;20508;-63
2021/09/30 03:50:46;;;;;;;1.53;1.07;;;15.70;99.90;;;;;;6274504;28;20489;-63
2021/09/30 03:53:59;;;;;;;2.20;1.00;;;15.70;99.90;;;;;;6274463;28;20458;-63
2021/09/30 03:57:09;;;;;;;1.07;0.87;;;15.70;99.90;;;;;;6274378;28;20434;-63
2021/09/30 04:00:13;;;;;;;0.90;0.90;;;15.60;99.90;;;;;;6274356;28;20473;-63
2021/09/30 04:03:16;;;;;;;1.73;1.10;;;15.60;99.90;;;;;;6274519;28;20488;-63
2021/09/30 04:06:20;;;;;;;1.40;1.23;;;15.70;99.90;;;;;;6274696;28;20458;-63
2021/09/30 04:09:28;;;;;;;1.20;1.10;;;15.70;99.90;;;;;;6275001;28;20470;-64
2021/09/30 04:12:31;;;;;;;1.17;1.07;;;15.60;99.90;;;;;;6274379;28;20481;-64
2021/09/30 04:15:35;;;;;;;1.53;1.40;;;15.60;99.90;;;;;;6274208;28;20466;-64
2021/09/30 04:18:38;;;;;;;2.10;1.03;;;15.60;99.90;;;;;;6274928;28;20480;-64
2021/09/30 04:21:42;;;;;;;1.40;1.30;;;15.60;99.90;;;;;;6274686;28;20851;-64
2021/09/30 04:24:48;;;;;;;1.37;1.13;;;15.60;99.90;;;;;;6274118;28;20781;-64
2021/09/30 04:27:51;;;;;;;0.70;0.60;;;15.60;99.90;;;;;;6274054;28;20466;-64
2021/09/30 04:30:54;;;;;;;1.93;0.80;;;15.50;99.90;;;;;;6276166;28;20477;-64
2021/09/30 04:33:57;;;;;;;1.07;0.97;;;15.50;99.90;;;;;;6278998;28;20799;-64
2021/09/30 04:37:01;;;;;;;1.70;1.10;;;15.50;99.90;;;;;;6279081;28;20489;-64
2021/09/30 04:40:07;;;;;;;1.67;1.57;;;15.40;99.90;;;;;;6278349;28;20470;-64
2021/09/30 04:43:10;;;;;;;2.17;1.40;;;15.40;99.90;;;;;;6278866;28;20466;-64
2021/09/30 04:46:14;;;;;;;3.03;1.80;;;15.40;99.90;;;;;;6278555;28;20470;-64
2021/09/30 04:49:17;;;;;;;2.27;1.47;;;15.40;99.90;;;;;;6278857;28;20477;-64
2021/09/30 04:52:21;;;;;;;3.10;2.20;;;15.40;99.90;;;;;;6278354;28;20489;-64
2021/09/30 04:55:25;;;;;;;1.53;1.43;;;15.30;99.90;;;;;;6278324;28;20478;-64
2021/09/30 04:58:28;;;;;;;4.20;1.97;;;15.30;99.90;;;;;;6278474;28;20470;-64
2021/09/30 05:01:31;;;;;;;3.17;2.50;;;15.40;99.90;;;;;;6278661;28;20809;-64
2021/09/30 05:04:35;;;;;;;2.10;1.80;;;15.30;99.90;;;;;;6278171;28;20481;-64
2021/09/30 05:07:38;;;;;;;1.80;1.70;;;15.30;99.90;;;;;;6278276;28;20477;-65
2021/09/30 05:10:44;;;;;;;2.17;1.80;;;15.30;99.90;;;;;;6277956;28;20493;-64
2021/09/30 05:13:52;;;;;;;2.03;1.83;;;15.30;99.90;;;;;;6277908;28;20537;-65
2021/09/30 05:16:55;;;;;;;1.70;1.60;;;15.30;99.90;;;;;;6264056;28;20470;-64
2021/09/30 05:19:58;;;;;;;1.60;1.50;;;15.40;99.90;;;;;;6277952;28;20474;-65
2021/09/30 05:23:02;;;;;;;1.60;1.40;;;15.40;99.90;;;;;;6277759;28;20489;-65
2021/09/30 05:26:07;;;;;;;2.23;1.57;;;15.40;99.90;;;;;;6277973;28;20619;-65
2021/09/30 05:29:10;;;;;;;1.87;1.27;;;15.40;99.90;;;;;;6277622;28;20478;-64
2021/09/30 05:32:13;;;;;;;1.00;0.90;;;15.40;99.90;;;;;;6277714;28;20482;-64
2021/09/30 05:35:17;;;;;;;2.10;1.90;;;15.40;99.90;;;;;;6277334;28;20470;-63
2021/09/30 05:38:21;;;;;;;2.20;2.00;;;15.40;99.90;;;;;;6277318;28;20481;-63
2021/09/30 05:41:26;;;;;;;5.47;2.00;;;15.50;99.90;;;;;;6277075;28;20501;-65
2021/09/30 05:44:31;;;;;;;1.97;1.80;;;15.50;99.90;;;;;;6277141;28;20480;-64
2021/09/30 05:47:35;;;;;;;2.27;2.07;;;15.60;99.90;;;;;;6276755;28;20776;-64
2021/09/30 05:50:38;;;;;;;2.20;1.67;;;15.60;99.90;;;;;;6277201;28;20801;-64
2021/09/30 05:53:41;;;;;;;1.70;1.60;;;15.60;99.90;;;;;;6277096;28;20496;-64
2021/09/30 05:56:46;;;;;;;3.10;1.73;;;15.60;99.90;;;;;;6276439;28;20470;-63
2021/09/30 05:59:49;;;;;;;3.23;1.90;;;15.70;99.90;;;;;;6276629;28;20519;-64
2021/09/30 06:10:22;;;;;;;2.90;1.50;;;15.70;99.90;;;;;;6276497;28;20466;-64
2021/09/30 06:13:31;;;;;;;4.23;1.40;;;15.80;99.90;;;;;;6276739;28;20476;-64
2021/09/30 06:16:37;;;;;;;2.13;1.30;;;15.80;99.90;;;;;;6276838;28;20470;-64
2021/09/30 06:20:00;;;;;;;1.43;1.20;;;15.90;99.90;;;;;;6270557;28;20537;-64
2021/09/30 06:23:04;;;;;;;2.83;1.23;;;15.90;99.90;;;;;;6275939;28;20504;-64
2021/09/30 06:26:08;;;;;;;2.10;1.07;;;16.00;99.90;;;;;;6276280;28;20473;-64
2021/09/30 06:29:13;;;;;;;3.30;1.50;;;16.10;99.90;;;;;;6276009;28;20478;-64
2021/09/30 06:32:16;;;;;;;3.20;1.30;;;16.20;99.90;;;;;;6276201;28;20477;-64
2021/09/30 06:35:19;;;;;;;6.43;1.67;;;16.30;99.90;;;;;;6275699;28;20466;-64
2021/09/30 06:38:22;;;;;;;1.83;1.07;;;16.40;99.90;;;;;;6276082;28;20474;-64
2021/09/30 06:41:25;;;;;;;2.50;1.03;;;16.40;99.90;;;;;;6275341;28;20492;-64
2021/09/30 06:44:51;;;;;;;3.70;1.20;;;16.60;99.90;;;;;;6276115;28;20545;-64
2021/09/30 06:47:54;;;;;;;2.00;1.33;;;16.70;99.90;;;;;;6275128;28;20454;-64
2021/09/30 06:50:57;;;;;;;2.80;1.27;;;16.90;99.90;;;;;;6276061;28;20473;-64
2021/09/30 06:54:01;;;;;;;2.80;2.43;;;16.90;99.90;;;;;;6275194;28;20453;-64
2021/09/30 06:57:04;;;;;;;1.73;1.53;;;17.00;99.90;;;;;;6275228;28;20450;-63
2021/09/30 07:00:10;;;;;;;1.50;1.20;;;17.10;99.90;;;;;;6275456;28;20771;-64
2021/09/30 07:03:13;;;;;;;4.13;1.40;;;17.20;99.90;;;;;;6275457;28;20458;-64
2021/09/30 07:06:16;;;;;;;4.67;2.70;;;17.30;99.90;;;;;;6276015;28;20465;-64
2021/09/30 07:09:20;;;;;;;6.20;2.53;;;17.40;99.50;;;;;;6275336;28;20977;-64
2021/09/30 07:12:23;;;;;;;3.70;1.77;;;17.40;99.60;;;;;;6275155;28;20961;-64
2021/09/30 07:15:27;;;;;;;2.93;1.60;;;17.40;98.00;;;;;;6275371;28;20529;-64
2021/09/30 07:18:30;;;;;;;2.80;2.27;;;17.40;97.40;;;;;;6275366;28;20470;-64
2021/09/30 07:21:34;;;;;;;3.90;3.50;;;17.30;97.50;;;;;;6275077;28;20513;-64
2021/09/30 07:24:38;;;;;;;3.33;1.93;;;17.40;98.10;;;;;;6265716;28;20478;-64
2021/09/30 07:27:41;;;;;;;1.90;1.30;;;17.50;97.50;;;;;;6275504;28;20474;-64
2021/09/30 07:30:45;;;;;;;2.50;1.80;;;17.50;96.40;;;;;;6275189;28;20481;-64
2021/09/30 07:33:49;;;;;;;4.50;1.60;;;17.50;96.40;;;;;;6274907;28;20497;-64
2021/09/30 07:36:52;;;;;;;3.13;1.70;;;17.60;96.20;;;;;;6274790;28;20481;-64
2021/09/30 07:39:55;;;;;;;1.50;1.40;;;17.80;96.00;;;;;;6275162;28;20531;-64
2021/09/30 07:42:59;;;;;;;3.30;2.80;;;18.10;96.70;;;;;;6274760;28;20813;-64
2021/09/30 07:46:03;;;;;;;3.77;2.00;;;18.30;95.50;;;;;;6275141;28;20484;-64
2021/09/30 07:49:07;;;;;;;1.60;1.10;;;18.40;94.10;;;;;;6275075;28;20493;-64
2021/09/30 07:52:11;;;;;;;2.13;1.13;;;18.60;93.00;;;;;;6274915;28;20470;-64
2021/09/30 07:55:14;;;;;;;2.20;1.07;;;18.90;92.00;;;;;;6275066;28;20310;-64
2021/09/30 07:58:17;;;;;;;5.53;0.97;;;19.30;91.70;;;;;;6274601;28;20227;-64
2021/09/30 08:01:22;;;;;;;1.53;1.10;;;20.60;89.10;;;;;;6274302;28;20558;-64
2021/09/30 08:04:26;;;;;;;1.10;1.00;;;23.50;78.10;;;;;;6274449;28;20361;-64
2021/09/30 08:07:29;;;;;;;1.80;0.83;;;25.70;64.20;;;;;;6278926;28;20231;-64
2021/09/30 08:10:33;;;;;;;2.33;1.00;;;26.70;53.60;;;;;;6279329;28;20301;-64
2021/09/30 08:13:36;;;;;;;1.70;0.90;;;27.20;50.80;;;;;;6278975;28;20219;-64
2021/09/30 08:16:41;;;;;;;1.37;0.80;;;27.10;49.60;;;;;;6278993;28;20230;-65
2021/09/30 08:19:45;;;;;;;1.00;0.67;;;26.30;48.90;;;;;;6278756;28;20256;-65
2021/09/30 08:22:48;;;;;;;1.27;0.90;;;25.70;49.60;;;;;;6278975;28;20707;-65
2021/09/30 08:25:54;;;;;;;1.67;0.80;;;25.00;49.80;;;;;;6278722;28;20242;-65
2021/09/30 08:28:58;;;;;;;1.20;0.90;;;24.30;50.80;;;;;;6269744;28;20227;-64
2021/09/30 08:32:03;;;;;;;0.80;0.70;;;23.90;52.30;;;;;;6279362;28;20239;-65
2021/09/30 08:35:08;;;;;;;1.90;0.97;;;23.50;52.80;;;;;;6278975;28;20239;-65
2021/09/30 08:38:11;;;;;;;1.30;0.90;;;23.20;52.90;;;;;;6278863;28;20223;-65
2021/09/30 08:41:15;;;;;;;2.60;1.00;;;23.20;53.60;;;;;;6278406;28;20680;-65
2021/09/30 08:44:18;;;;;;;2.07;0.50;;;23.20;54.50;;;;;;6278896;28;20676;-65
2021/09/30 08:47:23;;;;;;;1.57;0.87;;;23.40;53.40;;;;;;6278125;28;20224;-64
2021/09/30 08:50:27;;;;;;;1.53;0.70;;;23.80;52.10;;;;;;6278577;28;20227;-65
2021/09/30 08:53:30;;;;;;;1.13;0.70;;;24.70;50.80;;;;;;6278262;28;20691;-64
2021/09/30 08:56:34;;;;;;;2.17;0.60;;;27.50;46.40;;;;;;6278177;28;20242;-65
2021/09/30 08:59:39;;;;;;;1.00;0.53;;;29.80;40.50;;;;;;6278228;28;20227;-65
2021/09/30 09:02:49;;;;;;;2.50;0.87;;;29.70;39.40;;;;;;6278205;28;20246;-64
2021/09/30 09:05:52;;;;;;;2.93;1.03;;;30.80;41.10;;;;;;6278332;28;20683;-64
2021/09/30 09:09:18;;;;;;;2.20;0.90;;;31.50;43.10;;;;;;6277722;28;20230;-64
2021/09/30 09:12:23;;;;;;;2.95;0.90;;;31.80;42.10;;;;;;6277549;28;20555;-64
2021/09/30 09:15:26;;;;;;;2.65;1.00;;;31.50;42.20;;;;;;6277731;28;20223;-64
2021/09/30 09:18:33;;;;;;;3.53;1.30;;;31.40;40.80;;;;;;6277442;28;20226;-64
2021/09/30 09:21:39;;;;;;;1.90;1.50;;;31.40;40.70;;;;;;6277937;28;20563;-64
2021/09/30 09:25:14;;;;;;;1.15;0.82;;;32.90;39.00;;;;;;6278028;28;20584;-64
2021/09/30 09:28:19;;;;;;;1.50;1.00;;;35.30;36.00;;;;;;6277819;28;20360;-64
2021/09/30 09:31:29;;;;;;;3.75;1.15;;;37.30;31.60;;;;;;6273022;28;20250;-64
2021/09/30 09:34:38;;;;;;;1.30;0.77;;;36.70;30.80;;;;;;6277202;28;20239;-64
2021/09/30 09:37:41;;;;;;;1.60;1.10;;;37.50;30.50;;;;;;6277305;28;20227;-65
2021/09/30 09:40:44;;;;;;;1.83;0.85;;;39.80;28.50;;;;;;6276951;28;20230;-65
2021/09/30 09:43:49;;;;;;;2.33;0.82;;;38.70;28.10;;;;;;6277348;28;20233;-65
2021/09/30 09:46:52;;;;;;;1.50;0.82;;;39.80;27.20;;;;;;6277675;28;20222;-65
2021/09/30 09:50:15;;;;;;;1.00;0.80;;;42.00;25.10;;;;;;6277193;28;20245;-65
2021/09/30 09:53:19;;;;;;;1.02;0.80;;;43.20;23.60;;;;;;6277332;28;20241;-65
2021/09/30 09:56:23;;;;;;;1.30;0.73;;;43.00;23.10;;;;;;6277065;28;20223;-65
2021/09/30 09:59:31;;;;;;;1.50;0.85;;;41.70;23.10;;;;;;6277024;28;20227;-65
2021/09/30 10:02:34;;;;;;;1.88;1.10;;;40.30;23.80;;;;;;6277268;28;20231;-65
2021/09/30 10:05:39;;;;;;;1.45;0.82;;;37.10;25.60;;;;;;6276637;28;20730;-65
2021/09/30 10:08:43;;;;;;;3.40;1.15;;;35.60;27.70;;;;;;6277010;28;20234;-65
2021/09/30 10:11:46;;;;;;;1.75;0.95;;;35.40;27.90;;;;;;6276577;28;20231;-65
2021/09/30 10:14:53;;;;;;;3.05;0.90;;;36.20;27.80;;;;;;6276582;28;20534;-65
2021/09/30 10:17:57;;;;;;;1.35;1.00;;;36.20;27.30;;;;;;6277004;28;20230;-65
2021/09/30 10:21:02;;;;;;;1.52;0.90;;;35.30;27.90;;;;;;6276052;28;20216;-65
2021/09/30 10:24:07;;;;;;;1.35;0.82;;;34.80;28.30;;;;;;6276312;28;20246;-65
2021/09/30 10:27:12;;;;;;;1.30;0.85;;;33.50;29.10;;;;;;6276272;28;20207;-65
2021/09/30 10:30:31;;;;;;;2.42;1.23;;;32.20;30.20;;;;;;6275665;28;20238;-65
2021/09/30 10:33:41;;;;;;;1.93;1.00;;;30.80;32.20;;;;;;6267486;28;20281;-64
2021/09/30 10:36:48;;;;;;;1.47;0.80;;;30.10;32.90;;;;;;6276400;28;20233;-65
2021/09/30 10:40:15;;;;;;;1.80;0.70;;;29.90;34.40;;;;;;6276169;28;20234;-64
2021/09/30 10:43:23;;;;;;;1.80;0.85;;;30.00;35.20;;;;;;6276028;28;20239;-64
2021/09/30 10:46:47;;;;;;;1.10;0.90;;;31.80;33.60;;;;;;6276080;28;20238;-64
2021/09/30 10:49:58;;;;;;;1.77;1.17;;;32.20;30.90;;;;;;6276321;28;20227;-64
2021/09/30 10:53:02;;;;;;;2.47;1.10;;;31.10;31.80;;;;;;6258553;22;20224;-63
2021/09/30 10:56:37;;;;;;;2.40;1.23;;;30.60;33.60;;;;;;6250807;28;20227;-64
2021/09/30 10:59:41;;;;;;;1.67;1.10;;;30.60;34.60;;;;;;6250945;28;20228;-66
2021/09/30 11:03:12;;;;;;;3.08;1.02;;;30.80;35.40;;;;;;6250257;28;20231;-64
2021/09/30 11:06:21;;;;;;;1.23;0.90;;;32.70;33.10;;;;;;6251193;28;20292;-65
2021/09/30 11:09:26;;;;;;;2.33;1.02;;;32.90;32.10;;;;;;6250443;28;20238;-65
2021/09/30 11:12:29;;;;;;;1.50;1.40;;;34.30;31.20;;;;;;6250980;28;20228;-64
2021/09/30 11:16:03;;;;;;;3.65;1.63;;;35.30;29.10;;;;;;6250742;28;20532;-64
2021/09/30 11:19:06;;;;;;;1.52;0.90;;;33.30;31.00;;;;;;6254585;28;20231;-64
2021/09/30 11:22:12;;;;;;;4.45;1.15;;;31.50;33.60;;;;;;6250617;28;20554;-64
2021/09/30 11:25:16;;;;;;;2.05;1.70;;;31.30;34.10;;;;;;6250839;28;20246;-64
2021/09/30 11:28:27;;;;;;;3.40;1.40;;;31.20;34.40;;;;;;6250438;28;20571;-64
2021/09/30 11:31:33;;;;;;;2.58;1.85;;;32.80;32.50;;;;;;6249845;28;20305;-66
2021/09/30 11:34:39;;;;;;;2.17;1.00;;;35.20;29.50;;;;;;6250928;28;20228;-65
2021/09/30 11:37:45;;;;;;;1.95;1.30;;;36.30;28.30;;;;;;6250774;28;20242;-65
2021/09/30 11:40:49;;;;;;;1.92;1.05;;;36.20;28.10;;;;;;6253771;28;20250;-65
2021/09/30 11:43:52;;;;;;;2.40;1.42;;;34.20;29.20;;;;;;6255204;28;20233;-65
2021/09/30 11:46:57;;;;;;;2.03;1.50;;;31.10;32.80;;;;;;6255337;28;20667;-65
2021/09/30 11:50:03;;;;;;;1.57;1.10;;;29.50;34.80;;;;;;6255171;28;20242;-65
2021/09/30 11:53:09;;;;;;;2.37;1.23;;;28.30;36.50;;;;;;6255211;28;20250;-65
2021/09/30 11:56:14;;;;;;;1.30;0.77;;;27.70;38.30;;;;;;6255070;28;20539;-65
2021/09/30 11:59:19;;;;;;;2.00;1.10;;;27.20;38.70;;;;;;6255302;28;20237;-65
2021/09/30 12:02:27;;;;;;;2.03;0.90;;;27.40;38.70;;;;;;6254923;28;20567;-65
2021/09/30 12:05:33;;;;;;;5.10;2.30;;;27.70;38.50;;;;;;6254951;28;20248;-65
2021/09/30 12:08:36;;;;;;;1.23;0.80;;;30.00;35.80;;;;;;6254526;28;20679;-65
2021/09/30 12:11:50;;;;;;;1.35;0.70;;;32.70;31.80;;;;;;6254490;28;20238;-65
2021/09/30 12:14:55;;;;;;;1.85;0.60;;;34.40;29.20;;;;;;6254685;28;20228;-65
2021/09/30 12:18:01;;;;;;;1.60;0.80;;;33.80;28.70;;;;;;6254816;28;20208;-65
2021/09/30 12:21:04;;;;;;;5.20;1.95;;;31.60;29.90;;;;;;6254574;28;20250;-65
2021/09/30 12:24:08;;;;;;;3.30;2.40;;;30.00;31.20;;;;;;6254768;28;20208;-65
2021/09/30 12:27:13;;;;;;;2.27;1.03;;;29.20;32.90;;;;;;6255021;28;20214;-65
2021/09/30 12:30:19;;;;;;;4.37;0.97;;;28.20;37.00;;;;;;6254776;28;20232;-65
2021/09/30 12:33:31;;;;;;;1.73;1.20;;;27.60;40.00;;;;;;6254297;28;20234;-65
2021/09/30 12:36:36;;;;;;;3.40;1.53;;;26.80;41.70;;;;;;6241486;28;20316;-65
2021/09/30 12:39:39;;;;;;;1.97;1.40;;;26.50;43.00;;;;;;6255123;28;20223;-65
2021/09/30 12:42:57;;;;;;;3.03;1.33;;;26.70;43.00;;;;;;6256536;28;20227;-65
2021/09/30 12:46:04;;;;;;;1.57;1.10;;;29.80;38.10;;;;;;6255897;28;20231;-65
2021/09/30 12:49:07;;;;;;;1.27;1.17;;;30.50;36.40;;;;;;6254267;28;20235;-66
2021/09/30 12:52:17;;;;;;;3.95;1.40;;;32.30;35.30;;;;;;6252783;28;20302;-65
2021/09/30 12:55:28;;;;;;;2.72;1.10;;;34.60;32.00;;;;;;6253974;28;20224;-65
2021/09/30 12:58:37;;;;;;;1.27;1.13;;;34.30;31.40;;;;;;6254028;28;20228;-65
2021/09/30 13:01:42;;;;;;;1.95;0.98;;;32.80;32.00;;;;;;6253395;28;20228;-65
2021/09/30 13:04:53;;;;;;;2.93;0.83;;;30.40;35.40;;;;;;6254441;28;20646;-65
2021/09/30 13:07:57;;;;;;;3.63;0.70;;;29.30;37.30;;;;;;6254404;28;20676;-65
2021/09/30 13:11:20;;;;;;;1.97;0.90;;;28.60;38.60;;;;;;6253893;28;20675;-65
2021/09/30 13:14:29;;;;;;;1.87;1.27;;;27.80;39.10;;;;;;6254108;28;20232;-65
2021/09/30 13:17:32;;;;;;;1.83;1.03;;;28.00;39.40;;;;;;6253895;28;20284;-65
2021/09/30 13:20:35;;;;;;;1.50;0.83;;;28.60;38.00;;;;;;6253051;28;20247;-65
2021/09/30 13:23:38;;;;;;;2.70;1.20;;;28.30;37.80;;;;;;6255307;28;20683;-65
2021/09/30 13:26:41;;;;;;;2.97;1.57;;;27.70;39.20;;;;;;6257256;28;20223;-65
2021/09/30 13:29:48;;;;;;;3.23;1.17;;;26.60;41.20;;;;;;6252542;28;20688;-65
2021/09/30 13:32:52;;;;;;;1.30;1.13;;;25.40;43.40;;;;;;6252844;28;20224;-65
2021/09/30 13:35:55;;;;;;;3.43;1.10;;;24.70;45.00;;;;;;6252819;28;20228;-65
2021/09/30 13:38:59;;;;;;;1.83;0.90;;;24.50;45.80;;;;;;6248309;28;20204;-64
2021/09/30 13:42:02;;;;;;;1.70;1.30;;;24.30;45.90;;;;;;6252393;28;20224;-65
2021/09/30 13:45:10;;;;;;;1.27;1.00;;;23.80;46.30;;;;;;6252476;28;20204;-64
2021/09/30 13:48:13;;;;;;;2.20;1.23;;;23.30;46.90;;;;;;6252312;28;20208;-64
2021/09/30 13:51:16;;;;;;;4.10;1.10;;;22.70;48.00;;;;;;6252418;28;20243;-64
2021/09/30 13:54:19;;;;;;;2.63;1.20;;;22.20;49.20;;;;;;6252346;28;20614;-64
2021/09/30 13:57:23;;;;;;;2.77;1.30;;;21.80;50.10;;;;;;6252570;28;20230;-64
2021/09/30 14:00:27;;;;;;;1.10;1.00;;;21.40;51.30;;;;;;6252144;28;20228;-64
2021/09/30 14:03:30;;;;;;;3.60;1.10;;;21.10;52.40;;;;;;6251142;28;20224;-64
2021/09/30 14:06:34;;;;;;;4.10;2.03;;;20.70;54.10;;;;;;6252457;28;20258;-64
2021/09/30 14:09:37;;;;;;;1.77;0.90;;;20.50;54.80;;;;;;6252195;28;20224;-64
2021/09/30 14:12:42;;;;;;;1.23;1.10;;;20.40;55.60;;;;;;6251814;28;20232;-64
2021/09/30 14:15:47;;;;;;;1.67;1.00;;;20.20;56.30;;;;;;6252246;28;20220;-64
2021/09/30 14:18:51;;;;;;;2.80;1.20;;;20.00;57.10;;;;;;6252027;28;20231;-64
2021/09/30 14:21:56;;;;;;;3.23;1.10;;;19.80;57.90;;;;;;6251394;28;20224;-64
2021/09/30 14:24:59;;;;;;;1.43;1.07;;;19.70;58.60;;;;;;6251611;28;20239;-64
2021/09/30 14:28:02;;;;;;;4.27;1.03;;;19.80;58.70;;;;;;6251139;28;20235;-64
2021/09/30 14:31:07;;;;;;;2.60;1.20;;;19.70;60.30;;;;;;6251146;28;20232;-64
2021/09/30 14:34:10;;;;;;;1.40;0.87;;;19.60;62.70;;;;;;6251802;28;20247;-64
2021/09/30 14:37:14;;;;;;;2.10;0.83;;;19.50;64.50;;;;;;6251451;28;20583;-64
2021/09/30 14:40:17;;;;;;;1.87;1.20;;;19.40;67.40;;;;;;6251327;28;20554;-64
2021/09/30 14:43:22;;;;;;;1.27;1.13;;;19.00;70.20;;;;;;6246413;28;20247;-64
2021/09/30 14:46:27;;;;;;;3.13;1.07;;;18.80;73.20;;;;;;6251146;28;20243;-64
2021/09/30 14:49:33;;;;;;;5.47;1.10;;;18.70;75.60;;;;;;6250654;28;20562;-64
2021/09/30 14:52:36;;;;;;;3.07;1.30;;;18.80;76.90;;;;;;6250130;28;20676;-64
2021/09/30 14:55:39;;;;;;;1.90;1.60;;;18.90;78.20;;;;;;6250539;28;20224;-64
2021/09/30 14:58:43;;;;;;;1.27;0.90;;;18.90;78.60;;;;;;6251001;28;20241;-64
2021/09/30 15:01:47;;;;;;;1.53;1.17;;;18.60;81.20;;;;;;6250919;28;20232;-64
2021/09/30 15:04:51;;;;;;;1.80;1.57;;;18.60;82.30;;;;;;6251288;28;20742;-64
2021/09/30 15:07:54;;;;;;;1.30;1.20;;;18.60;83.10;;;;;;6251214;28;20232;-64
2021/09/30 15:11:00;;;;;;;1.40;1.30;;;18.70;83.70;;;;;;6251989;28;20247;-64
2021/09/30 15:14:03;;;;;;;2.60;1.10;;;18.80;83.90;;;;;;6251924;28;20232;-64
2021/09/30 15:17:12;;;;;;;2.80;1.50;;;18.80;83.90;;;;;;6253603;28;20228;-64
2021/09/30 15:23:32;;;;;;;2.07;1.83;;;19.00;85.00;;;;;;6250721;28;20227;-64
2021/09/30 15:26:39;;;;;;;1.93;1.70;;;19.10;86.60;;;;;;6251142;28;20231;-64
2021/09/30 15:29:42;;;;;;;2.83;1.77;;;19.10;87.70;;;;;;6250900;28;20231;-64
2021/09/30 15:32:46;;;;;;;2.43;1.90;;;19.10;88.00;;;;;;6250200;28;20232;-64
2021/09/30 15:35:49;;;;;;;1.47;1.37;;;19.00;88.40;;;;;;6250233;28;20236;-64
2021/09/30 15:38:57;;;;;;;1.73;1.30;;;19.00;88.70;;;;;;6249874;28;20722;-64
2021/09/30 15:42:00;;;;;;;1.70;1.47;;;18.90;88.60;;;;;;6249709;28;20463;-64
2021/09/30 15:45:04;;;;;;;2.30;1.40;;;18.90;89.10;;;;;;6245365;28;20223;-64
2021/09/30 15:48:08;;;;;;;2.17;1.50;;;18.80;89.60;;;;;;6250764;28;20671;-64
2021/09/30 15:51:12;;;;;;;2.27;1.53;;;18.70;90.10;;;;;;6250170;28;20243;-64
2021/09/30 15:54:15;;;;;;;1.33;1.23;;;18.60;90.30;;;;;;6250681;28;20235;-64
2021/09/30 15:57:19;;;;;;;1.90;1.10;;;18.60;90.60;;;;;;6249992;28;20223;-64
2021/09/30 16:00:22;;;;;;;1.20;1.00;;;18.50;91.40;;;;;;6250252;28;20236;-64
2021/09/30 16:03:27;;;;;;;2.10;1.23;;;18.50;92.40;;;;;;6250074;28;20231;-64
2021/09/30 16:06:30;;;;;;;2.57;1.33;;;18.50;92.70;;;;;;6250412;28;20228;-64
2021/09/30 16:09:33;;;;;;;1.23;1.13;;;18.50;93.20;;;;;;6249866;28;20235;-64
2021/09/30 16:12:37;;;;;;;1.70;1.57;;;18.40;93.50;;;;;;6250661;28;20239;-64
2021/09/30 16:15:45;;;;;;;2.33;1.50;;;18.40;94.20;;;;;;6250216;28;20228;-64
2021/09/30 16:18:49;;;;;;;3.57;1.70;;;18.30;95.10;;;;;;6250446;28;20230;-64
2021/09/30 16:21:53;;;;;;;5.53;2.30;;;18.20;96.20;;;;;;6249753;28;20243;-64
2021/09/30 16:24:56;;;;;;;3.90;1.70;;;18.20;97.30;;;;;;6249739;28;20501;-64
2021/09/30 16:28:00;;;;;;;3.07;1.80;;;18.10;97.60;;;;;;6254306;28;20477;-64
2021/09/30 16:31:04;;;;;;;4.17;2.60;;;18.00;98.20;;;;;;6254223;28;20501;-64
2021/09/30 16:34:08;;;;;;;4.40;2.37;;;18.00;99.10;;;;;;6255359;28;20471;-64
2021/09/30 16:37:12;;;;;;;3.90;2.10;;;18.00;99.60;;;;;;6254457;28;20482;-64
2021/09/30 16:40:15;;;;;;;3.00;1.90;;;18.00;99.90;;;;;;6254175;28;20481;-64
2021/09/30 16:43:18;;;;;;;1.80;1.70;;;18.00;99.90;;;;;;6254382;28;20467;-64
2021/09/30 16:46:22;;;;;;;2.97;1.90;;;17.90;99.90;;;;;;6253906;28;20497;-64
2021/09/30 16:49:28;;;;;;;1.63;1.50;;;17.90;99.90;;;;;;6253270;28;20475;-64
2021/09/30 16:52:31;;;;;;;5.10;1.60;;;18.00;99.90;;;;;;6253614;28;20485;-64
2021/09/30 16:55:34;;;;;;;3.20;2.20;;;18.00;99.90;;;;;;6253670;28;20470;-64
2021/09/30 16:58:37;;;;;;;4.60;4.10;;;18.00;99.90;;;;;;6253363;28;20466;-64
2021/09/30 17:01:43;;;;;;;5.23;3.90;;;17.80;99.90;;;;;;6253390;28;20485;-64
2021/09/30 17:04:48;;;;;;;2.90;2.27;;;17.80;99.90;;;;;;6253338;28;20550;-64
2021/09/30 17:07:52;;;;;;;2.30;2.07;;;17.70;99.90;;;;;;6253516;28;20475;-64
2021/09/30 17:10:58;;;;;;;2.60;1.97;;;17.70;99.90;;;;;;6253419;28;20474;-64
2021/09/30 17:14:01;;;;;;;2.13;1.97;;;17.80;99.90;;;;;;6253300;28;20478;-64
2021/09/30 17:17:05;;;;;;;3.00;2.50;;;17.80;99.90;;;;;;6253454;28;20479;-64
2021/09/30 17:20:13;;;;;;;4.33;2.40;;;17.80;99.90;;;;;;6253291;28;20613;-64
2021/09/30 17:23:16;;;;;;;2.30;2.10;;;17.70;99.90;;;;;;6253618;28;20467;-64
2021/09/30 17:26:20;;;;;;;2.13;1.93;;;17.70;99.90;;;;;;6253350;28;20467;-64
2021/09/30 17:29:23;;;;;;;2.90;2.30;;;17.60;99.90;;;;;;6253024;28;20476;-64
2021/09/30 17:32:26;;;;;;;2.37;2.17;;;17.60;99.90;;;;;;6252541;28;20471;-64
2021/09/30 17:35:31;;;;;;;2.20;2.00;;;17.70;99.90;;;;;;6252583;28;20478;-64
2021/09/30 17:38:34;;;;;;;2.83;2.53;;;17.70;99.90;;;;;;6252680;28;20482;-64
2021/09/30 17:41:38;;;;;;;3.90;2.70;;;17.60;99.90;;;;;;6252365;28;20479;-64
2021/09/30 17:44:42;;;;;;;2.77;2.43;;;17.60;99.90;;;;;;6252295;28;20958;-64
2021/09/30 17:47:45;;;;;;;3.63;2.97;;;17.60;99.90;;;;;;6252159;28;20481;-64
2021/09/30 17:50:50;;;;;;;3.40;2.70;;;17.60;99.90;;;;;;6251909;28;20502;-65
2021/09/30 17:53:53;;;;;;;3.40;2.27;;;17.60;99.90;;;;;;6247677;28;20482;-65
2021/09/30 17:56:57;;;;;;;4.07;2.37;;;17.60;99.90;;;;;;6252238;28;20553;-64
2021/09/30 18:00:00;;;;;;;4.10;2.47;;;17.60;99.90;;;;;;6252049;28;20470;-64
2021/09/30 18:03:04;;;;;;;2.87;2.67;;;17.50;99.90;;;;;;6252676;28;20458;-64
2021/09/30 18:06:09;;;;;;;3.73;3.10;;;17.50;99.90;;;;;;6252347;28;20446;-64
2021/09/30 18:09:12;;;;;;;4.63;3.70;;;17.40;99.90;;;;;;6252347;28;20454;-65
2021/09/30 18:12:15;;;;;;;3.27;3.07;;;17.40;99.90;;;;;;6251868;28;20769;-64
2021/09/30 18:15:19;;;;;;;2.80;2.60;;;17.40;99.90;;;;;;6252142;28;20467;-64
2021/09/30 18:18:23;;;;;;;3.00;2.80;;;17.40;99.90;;;;;;6252035;28;20942;-64
2021/09/30 18:21:28;;;;;;;4.20;3.57;;;17.30;99.90;;;;;;6252147;28;20948;-64
2021/09/30 18:25:10;;;;;;;3.57;2.33;;;17.30;99.90;;;;;;6251851;28;20476;-64
2021/09/30 18:27:55;;;;;;;2.60;2.33;;;17.30;99.90;;;;;;6251976;28;20517;-64